createdAt,value
2023-02-17T00:03:51.038Z,79.72
2023-02-17T00:08:57.655Z,69.65
2023-02-17T00:14:02.896Z,71.35
2023-02-17T00:19:25.267Z,109.97
2023-02-17T00:24:33.784Z,112.47
2023-02-17T00:29:42.539Z,106.30
2023-02-17T00:34:48.098Z,74.95
2023-02-17T00:39:54.947Z,77.03
2023-02-17T00:45:00.643Z,101.97
2023-02-17T00:50:07.427Z,120.82
2023-02-17T00:55:23.762Z,88.88
2023-02-17T01:00:29.543Z,91.13
2023-02-17T01:11:32.098Z,100.03
2023-02-17T01:16:42.775Z,69.95
2023-02-17T01:21:48.820Z,80.38
2023-02-17T01:26:54.042Z,110.45
2023-02-17T01:31:59.786Z,117.25
2023-02-17T01:37:05.803Z,165.63
2023-02-17T01:42:24.863Z,107.50
2023-02-17T01:47:30.369Z,126.85
2023-02-17T01:52:36.469Z,143.13
2023-02-17T02:02:50.801Z,142.20
2023-02-17T02:07:58.791Z,149.63
2023-02-17T02:13:04.166Z,126.97
2023-02-17T02:19:06.445Z,149.30
2023-02-17T02:24:38.870Z,140.25
2023-02-17T02:30:08.904Z,152.88
2023-02-17T02:35:53.896Z,152.00
2023-02-17T02:41:12.382Z,166.63
2023-02-17T02:46:18.401Z,172.23
2023-02-17T02:51:36.020Z,156.10
2023-02-17T02:57:06.547Z,167.68
2023-02-17T03:02:31.462Z,176.80
2023-02-17T03:07:47.692Z,162.68
2023-02-17T03:12:53.288Z,182.57
2023-02-17T03:18:03.953Z,189.77
2023-02-17T03:23:10.618Z,170.45
2023-02-17T03:28:16.986Z,174.52
2023-02-17T03:33:22.821Z,177.13
2023-02-17T03:38:30.093Z,183.07
2023-02-17T03:43:36.872Z,165.10
2023-02-17T03:48:42.403Z,186.07
2023-02-17T03:53:51.011Z,180.30
2023-02-17T03:59:00.143Z,198.43
2023-02-17T04:04:06.530Z,174.35
2023-02-17T04:09:12.807Z,179.20
2023-02-17T04:14:18.492Z,183.25
2023-02-17T04:19:24.660Z,168.63
2023-02-17T04:24:31.237Z,174.32
2023-02-17T04:29:37.107Z,171.65
2023-02-17T04:34:42.337Z,175.80
2023-02-17T04:39:48.134Z,181.80
2023-02-17T04:44:56.086Z,181.03
2023-02-17T04:50:01.553Z,158.52
2023-02-17T04:55:09.680Z,169.43
2023-02-17T05:00:15.695Z,160.95
2023-02-17T05:05:22.435Z,172.67
2023-02-17T05:10:34.734Z,165.68
2023-02-17T05:15:40.408Z,155.57
2023-02-17T05:20:45.877Z,139.00
2023-02-17T05:25:51.666Z,165.23
2023-02-17T05:30:59.680Z,166.43
2023-02-17T05:36:10.752Z,179.48
2023-02-17T05:41:16.334Z,156.07
2023-02-17T05:46:24.585Z,167.80
2023-02-17T05:51:30.003Z,174.35
2023-02-17T05:56:41.241Z,178.25
2023-02-17T06:01:49.657Z,175.25
2023-02-17T06:06:55.828Z,181.63
2023-02-17T06:12:01.760Z,167.25
2023-02-17T06:17:10.016Z,165.65
2023-02-17T06:22:18.774Z,164.70
2023-02-17T06:27:25.101Z,164.02
2023-02-17T06:32:36.705Z,173.05
2023-02-17T06:37:45.317Z,158.90
2023-02-17T06:42:50.863Z,161.55
2023-02-17T06:47:56.625Z,142.77
2023-02-17T06:53:02.214Z,166.07
2023-02-17T06:58:09.721Z,174.93
2023-02-17T07:03:15.196Z,156.68
2023-02-17T07:08:20.562Z,162.02
2023-02-17T07:13:26.072Z,155.43
2023-02-17T07:18:33.652Z,166.03
2023-02-17T07:23:40.978Z,157.98
2023-02-17T07:28:46.958Z,167.52
2023-02-17T07:33:52.249Z,161.45
2023-02-17T07:38:58.064Z,144.45
2023-02-17T07:44:03.470Z,151.18
2023-02-17T07:49:11.489Z,147.13
2023-02-17T07:54:17.162Z,153.15
2023-02-17T07:59:22.413Z,171.70
2023-02-17T08:04:28.047Z,137.57
2023-02-17T08:09:51.683Z,142.80
2023-02-17T08:14:59.980Z,147.75
2023-02-17T08:20:08.976Z,154.35
2023-02-17T08:25:14.953Z,147.10
2023-02-17T08:30:24.065Z,130.87
2023-02-17T08:35:30.675Z,144.77
2023-02-17T08:40:36.044Z,133.55
2023-02-17T08:45:41.851Z,152.10
2023-02-17T08:50:50.431Z,171.60
2023-02-17T08:55:56.276Z,143.13
2023-02-17T09:01:02.269Z,150.50
2023-02-17T09:06:08.924Z,144.37
2023-02-17T09:11:18.730Z,139.88
2023-02-17T09:16:25.841Z,143.23
2023-02-17T09:21:31.595Z,146.40
2023-02-17T09:26:37.438Z,140.13
2023-02-17T09:31:43.385Z,143.60
2023-02-17T09:41:56.755Z,148.15
2023-02-17T09:47:26.883Z,139.40
2023-02-17T09:52:38.484Z,158.18
2023-02-17T09:58:00.841Z,152.23
2023-02-17T10:03:22.408Z,158.70
2023-02-17T10:08:38.929Z,156.63
2023-02-17T10:13:47.041Z,158.80
2023-02-17T10:19:06.739Z,168.90
2023-02-17T10:24:12.846Z,153.02
2023-02-17T10:29:21.901Z,172.63
2023-02-17T10:35:06.036Z,168.52
2023-02-17T10:40:29.785Z,173.48
2023-02-17T10:45:50.980Z,158.43
2023-02-17T10:51:02.738Z,174.40
2023-02-17T10:56:19.900Z,164.27
2023-02-17T11:01:25.653Z,176.40
2023-02-17T11:06:33.265Z,179.00
2023-02-17T11:11:39.526Z,167.10
2023-02-17T11:16:51.421Z,178.60
2023-02-17T11:21:58.611Z,179.68
2023-02-17T11:27:13.000Z,182.02
2023-02-17T11:32:18.697Z,197.52
2023-02-17T11:37:28.517Z,174.97
2023-02-17T11:42:35.666Z,182.20
2023-02-17T11:48:02.160Z,182.23
2023-02-17T11:53:55.080Z,177.95
2023-02-17T11:59:12.830Z,170.18
2023-02-17T12:04:33.362Z,168.65
2023-02-17T12:09:45.074Z,177.68
2023-02-17T12:15:15.319Z,184.68
2023-02-17T12:20:21.506Z,171.80
2023-02-17T12:25:32.460Z,192.35
2023-02-17T12:31:19.599Z,184.07
2023-02-17T12:36:29.677Z,187.80
2023-02-17T12:41:49.284Z,207.10
2023-02-17T12:47:03.178Z,183.27
2023-02-17T12:52:43.837Z,190.32
2023-02-17T12:58:05.446Z,173.02
2023-02-17T13:03:11.594Z,193.02
2023-02-17T13:08:59.562Z,208.05
2023-02-17T13:14:39.320Z,198.63
2023-02-17T13:19:45.651Z,196.77
2023-02-17T13:30:06.975Z,197.20
2023-02-17T13:35:28.087Z,173.45
2023-02-17T13:40:41.010Z,177.88
2023-02-17T13:46:08.257Z,178.43
2023-02-17T13:51:29.245Z,156.65
2023-02-17T13:56:37.868Z,154.68
2023-02-17T14:01:46.113Z,145.85
2023-02-17T14:06:52.762Z,132.90
2023-02-17T14:12:01.486Z,161.52
2023-02-17T14:17:34.340Z,121.97
2023-02-17T14:22:40.048Z,105.40
2023-02-17T14:27:46.537Z,118.47
2023-02-17T14:33:02.445Z,144.20
2023-02-17T14:38:25.034Z,135.20
2023-02-17T14:43:31.032Z,98.72
2023-02-17T14:53:43.361Z,115.15
2023-02-17T14:58:50.083Z,100.07
2023-02-17T15:03:59.669Z,115.43
2023-02-17T15:09:05.706Z,88.53
2023-02-17T15:14:16.636Z,82.90
2023-02-17T15:19:23.701Z,96.70
2023-02-17T15:24:37.323Z,87.05
2023-02-17T15:29:43.795Z,90.28
2023-02-17T15:39:54.923Z,86.82
2023-02-17T15:45:01.254Z,86.22
2023-02-17T15:50:06.878Z,81.87
2023-02-17T15:55:12.714Z,85.28
2023-02-17T16:00:34.308Z,76.68
2023-02-17T16:05:43.244Z,83.90
2023-02-17T16:10:53.460Z,86.82
2023-02-17T16:16:23.913Z,74.43
2023-02-17T16:21:30.808Z,75.82
2023-02-17T16:26:45.982Z,70.38
2023-02-17T16:32:05.080Z,74.80
2023-02-17T16:37:19.381Z,73.55
2023-02-17T16:42:24.712Z,71.70
2023-02-17T16:47:32.055Z,70.60
2023-02-17T16:52:53.880Z,73.78
2023-02-17T16:57:59.721Z,67.53
2023-02-17T17:03:14.656Z,68.80
2023-02-17T17:08:23.491Z,69.53
2023-02-17T17:13:29.121Z,72.78
2023-02-17T17:18:34.302Z,62.53
2023-02-17T17:23:43.536Z,68.05
2023-02-17T17:28:54.276Z,64.82
2023-02-17T17:33:59.641Z,71.63
2023-02-17T17:39:07.686Z,63.43
2023-02-17T17:44:13.637Z,84.53
2023-02-17T17:49:20.261Z,77.30
2023-02-17T17:54:25.797Z,80.50
2023-02-17T17:59:31.344Z,65.00
2023-02-17T18:04:37.006Z,88.73
2023-02-17T18:09:42.857Z,90.45
2023-02-17T18:14:53.308Z,72.43
2023-02-17T18:19:58.988Z,77.13
2023-02-17T18:25:04.403Z,82.22
2023-02-17T18:30:11.292Z,88.87
2023-02-17T18:35:18.955Z,78.45
2023-02-17T18:40:24.616Z,86.20
2023-02-17T18:45:29.959Z,80.37
2023-02-17T18:50:36.450Z,77.90
2023-02-17T18:55:42.411Z,84.80
2023-02-17T19:00:47.978Z,74.55
2023-02-17T19:05:53.253Z,85.87
2023-02-17T19:10:58.806Z,65.07
2023-02-17T19:16:32.324Z,78.47
2023-02-17T19:21:38.064Z,67.07
2023-02-17T19:26:43.869Z,61.90
2023-02-17T19:31:49.476Z,68.82
2023-02-17T19:36:55.467Z,69.97
2023-02-17T19:42:01.259Z,75.88
2023-02-17T19:47:06.520Z,56.30
2023-02-17T19:52:12.506Z,79.10
2023-02-17T19:57:20.640Z,82.30
2023-02-17T20:02:25.947Z,63.92
2023-02-17T20:07:33.231Z,84.80
2023-02-17T20:12:39.718Z,73.07
2023-02-17T20:17:46.010Z,92.78
2023-02-17T20:22:51.504Z,69.68
2023-02-17T20:27:57.299Z,92.47
2023-02-17T20:33:02.853Z,60.08
2023-02-17T20:38:08.924Z,80.80
2023-02-17T20:43:14.723Z,80.35
2023-02-17T20:48:20.461Z,56.38
2023-02-17T20:53:27.053Z,77.63
2023-02-17T20:58:32.628Z,75.75
2023-02-17T21:03:39.923Z,69.17
2023-02-17T21:08:45.693Z,79.93
2023-02-17T21:13:51.772Z,81.22
2023-02-17T21:18:57.300Z,72.80
2023-02-17T21:24:02.775Z,59.67
2023-02-17T21:29:08.435Z,83.70
2023-02-17T21:34:13.747Z,79.20
2023-02-17T21:39:19.439Z,80.53
2023-02-17T21:44:42.833Z,68.77
2023-02-17T21:49:49.079Z,66.03
2023-02-17T22:00:00.337Z,67.80
2023-02-17T22:05:05.646Z,67.73
2023-02-17T22:10:11.467Z,78.37
2023-02-17T22:15:17.646Z,73.63
2023-02-17T22:25:28.229Z,91.30
2023-02-17T22:30:33.614Z,81.83
2023-02-17T22:35:39.118Z,77.67
2023-02-17T22:40:44.448Z,66.47
2023-02-17T22:45:50.032Z,68.93
2023-02-17T22:50:55.425Z,65.57
2023-02-17T22:56:00.585Z,66.20
2023-02-17T23:01:22.105Z,75.83
2023-02-17T23:06:33.391Z,74.47
2023-02-17T23:11:56.183Z,78.07
2023-02-17T23:17:08.001Z,65.30
2023-02-17T23:22:19.054Z,73.47
2023-02-17T23:27:24.648Z,78.85
2023-02-17T23:32:33.709Z,85.97
2023-02-17T23:37:39.505Z,82.90
2023-02-17T23:42:44.978Z,78.20
2023-02-17T23:47:50.622Z,76.20
2023-02-17T23:52:56.207Z,81.20
2023-02-17T23:58:02.239Z,79.20
